• Join FlightAware (Why Join?)
  • Login
  • US Flag 
03:20PM EST


 

Airport Tracker/Info


-or-


 

Live Flight TrackerFlight Track Log ✈ RAX81 ✈ 10-May-2013 ✈ KFTY - KBWI

Flight Track Log - Related Links

Times and Time Zones

All times are in EDT time to prevent confusion due to time zone crossing. See the RAX81 flight status page for this flight to view local times or setup timezone preferences in your user account.

Time Position Orientation Groundspeed Altitude Reporting Facility
EDT Latitude Longitude Course Direction KTS MPH feet Rate Location/Type
01:41AM 33.7833 -84.4833 68° East 156 180 1,900  Level Atlanta TRACON
01:42AM 33.8000 -84.4333 68° East 159 183 3,400 1,500 Climbing Atlanta TRACON
01:43AM 33.8333 -84.4000 40° Northeast 157 181 4,700 1,560 Climbing Atlanta TRACON
01:44AM 33.8500 -84.3500 68° East 163 188 6,300 1,500 Climbing Atlanta TRACON
01:45AM 33.8667 -84.3000 68° East 162 186 7,800 1,500 Climbing Atlanta TRACON
01:46AM 33.9000 -84.2667 40° Northeast 160 184 9,300 1,200 Climbing Atlanta TRACON
01:48AM 33.9528 -84.1514 61° Northeast 181 208 11,900 1,080 Climbing Atlanta Center
01:49AM 33.9819 -84.1064 52° Northeast 176 203 13,100 1,020 Climbing Atlanta Center
01:50AM 34.0156 -84.0564 51° Northeast 176 203 14,000 900 Climbing Atlanta Center
01:51AM 34.0511 -84.0086 48° Northeast 176 203 14,900 900 Climbing Atlanta Center
01:52AM 34.0864 -83.9661 45° Northeast 176 203 15,800 840 Climbing Atlanta Center
01:53AM 34.1219 -83.9208 47° Northeast 187 215 16,600 720 Climbing Atlanta Center
01:54AM 34.1572 -83.8706 50° Northeast 187 215 17,300 600 Climbing Atlanta Center
01:55AM 34.1906 -83.8178 53° Northeast 187 215 17,800 600 Climbing Atlanta Center
01:56AM 34.2261 -83.7675 49° Northeast 187 215 18,500 660 Climbing Atlanta Center
01:57AM 34.2614 -83.7172 50° Northeast 187 215 19,200 600 Climbing Atlanta Center
01:58AM 34.2947 -83.6667 51° Northeast 187 215 19,800 600 Climbing Atlanta Center
01:59AM 34.3300 -83.6161 50° Northeast 187 215 20,400 540 Climbing Atlanta Center
02:00AM 34.3631 -83.5708 49° Northeast 187 215 20,900 540 Climbing Atlanta Center
02:01AM 34.3964 -83.5203 51° Northeast 192 221 21,500 480 Climbing Atlanta Center
02:02AM 34.4336 -83.4697 48° Northeast 192 221 21,900 360 Climbing Atlanta Center
02:03AM 34.4689 -83.4114 54° Northeast 197 227 22,300 300 Climbing Atlanta Center
02:04AM 34.5042 -83.3583 51° Northeast 203 234 22,600 300 Climbing Atlanta Center
02:05AM 34.5414 -83.3000 52° Northeast 203 234 23,000 300 Climbing Atlanta Center
02:06AM 34.5806 -83.2442 50° Northeast 203 234 23,300 300 Climbing Atlanta Center
02:07AM 34.6239 -83.1856 48° Northeast 209 241 23,600 300 Climbing Atlanta Center
02:08AM 34.6653 -83.1322 47° Northeast 209 241 23,900 300 Climbing Atlanta Center
02:09AM 34.7047 -83.0761 49° Northeast 214 246 24,300 300 Climbing Atlanta Center
02:10AM 34.7397 -83.0228 51° Northeast 209 241 24,600 300 Climbing Atlanta Center
02:11AM 34.7767 -82.9667 51° Northeast 215 247 24,900 240 Climbing Atlanta Center
02:12AM 34.8158 -82.9131 48° Northeast 209 241 25,100 60 Climbing Atlanta Center
02:13AM 34.8489 -82.8644 50° Northeast 204 235 25,100  Level Atlanta Center
02:14AM 34.8878 -82.8031 52° Northeast 213 245 25,100  Level Atlanta Center
02:15AM 34.9289 -82.7442 50° Northeast 219 252 25,100  Level Atlanta Center
02:16AM 34.9700 -82.6853 50° Northeast 219 252 25,100  Level Atlanta Center
02:17AM 35.0092 -82.6239 52° Northeast 219 252 25,100  Level Atlanta Center
02:18AM 35.0522 -82.5672 47° Northeast 219 252 25,100  Level Atlanta Center
02:19AM 35.0911 -82.5081 51° Northeast 219 252 25,100  Level Atlanta Center
02:20AM 35.1342 -82.4489 48° Northeast 225 259 25,100  Level Atlanta Center
02:21AM 35.1731 -82.3847 53° Northeast 225 259 25,100  Level Atlanta Center
02:22AM 35.2181 -82.3253 47° Northeast 225 259 25,100 -60 Level Atlanta Center
02:23AM 35.2569 -82.2658 51° Northeast 225 259 25,000 -60 Descending Atlanta Center
02:24AM 35.3019 -82.2014 49° Northeast 225 259 25,000  Level Atlanta Center
02:25AM 35.3447 -82.1394 50° Northeast 230 265 25,000  Level Atlanta Center
02:26AM 35.3833 -82.0825 50° Northeast 225 259 25,000  Level Atlanta Center
02:27AM 35.4242 -82.0253 49° Northeast 219 252 25,000  Level Atlanta Center
02:28AM 35.4650 -81.9631 51° Northeast 224 258 25,000  Level Atlanta Center
02:29AM 35.5056 -81.9033 50° Northeast 224 258 25,000  Level Atlanta Center
02:30AM 35.5464 -81.8436 50° Northeast 219 252 25,000  Level Atlanta Center
02:31AM 35.5869 -81.7839 50° Northeast 224 258 25,000  Level Atlanta Center
02:32AM 35.6275 -81.7239 50° Northeast 229 264 25,000  Level Atlanta Center
02:33AM 35.6642 -81.6692 50° Northeast 229 264 25,000  Level Atlanta Center
02:34AM 35.7044 -81.6067 52° Northeast 224 258 25,000  Level Atlanta Center
02:35AM 35.7453 -81.5492 49° Northeast 224 258 25,000  Level Atlanta Center
02:36AM 35.7856 -81.4892 50° Northeast 224 258 25,000  Level Atlanta Center
02:37AM 35.8281 -81.4211 52° Northeast 224 258 25,000  Level Atlanta Center
02:38AM 35.8728 -81.3633 46° Northeast 224 258 25,000  Level Atlanta Center
02:39AM 35.9108 -81.3006 53° Northeast 224 258 25,000  Level Atlanta Center
02:40AM 35.9514 -81.2403 50° Northeast 224 258 25,000  Level Atlanta Center
02:41AM 35.9936 -81.1797 49° Northeast 224 258 25,000  Level Atlanta Center
02:42AM 36.0319 -81.1219 51° Northeast 224 258 25,000  Level Atlanta Center
02:43AM 36.0681 -81.0667 51° Northeast 224 258 25,000  Level Atlanta Center
02:44AM 36.1106 -81.0033 50° Northeast 230 265 25,000  Level Atlanta Center
02:45AM 36.1506 -80.9453 50° Northeast 230 265 25,000  Level Atlanta Center
02:46AM 36.1908 -80.8819 52° Northeast 230 265 25,000  Level Atlanta Center
02:47AM 36.2331 -80.8186 50° Northeast 230 265 25,000  Level Atlanta Center
02:49AM 36.3164 -80.6911 51° Northeast 236 272 25,000  Level Washington Center
02:50AM 36.3586 -80.6319 48° Northeast 236 272 25,000  Level Washington Center
02:51AM 36.3986 -80.5725 50° Northeast 226 260 25,000  Level Washington Center
02:52AM 36.4389 -80.5106 51° Northeast 226 260 25,000  Level Washington Center
02:53AM 36.4786 -80.4536 49° Northeast 226 260 25,000  Level Washington Center
02:54AM 36.5122 -80.4014 51° Northeast 221 254 25,000  Level Washington Center
02:55AM 36.5519 -80.3469 48° Northeast 221 254 25,000  Level Washington Center
02:56AM 36.5981 -80.2850 47° Northeast 221 254 25,000  Level Washington Center
02:57AM 36.6422 -80.2256 47° Northeast 226 260 25,000  Level Washington Center
02:58AM 36.6842 -80.1686 47° Northeast 226 260 25,000  Level Washington Center
02:59AM 36.7281 -80.1117 46° Northeast 226 260 25,000  Level Washington Center
03:00AM 36.7675 -80.0594 47° Northeast 226 260 25,000  Level Washington Center
03:01AM 36.8114 -80.0022 46° Northeast 226 260 25,000  Level Washington Center
03:02AM 36.8531 -79.9422 49° Northeast 226 260 25,000  Level Washington Center
03:03AM 36.9014 -79.8803 46° Northeast 226 260 25,000  Level Washington Center
03:04AM 36.9450 -79.8228 46° Northeast 226 260 25,000  Level Washington Center
03:05AM 36.9886 -79.7681 45° Northeast 226 260 25,000  Level Washington Center
03:06AM 37.0322 -79.7131 45° Northeast 221 254 25,000  Level Washington Center
03:07AM 37.0717 -79.6606 47° Northeast 215 247 25,000  Level Washington Center
03:08AM 37.1133 -79.6056 46° Northeast 215 247 25,000  Level Washington Center
03:09AM 37.1567 -79.5503 45° Northeast 215 247 25,000  Level Washington Center
03:10AM 37.2067 -79.4903 44° Northeast 215 247 25,000  Level Washington Center
03:11AM 37.2522 -79.4353 44° Northeast 215 247 25,000 -60 Level Washington Center
03:12AM 37.2936 -79.3800 47° Northeast 215 247 24,900 -60 Descending Washington Center
03:13AM 37.3350 -79.3297 44° Northeast 215 247 24,900  Level Washington Center
03:14AM 37.3764 -79.2717 48° Northeast 215 247 24,900  Level Washington Center
03:15AM 37.4178 -79.2161 47° Northeast 215 247 24,900  Level Washington Center
03:16AM 37.4656 -79.1531 46° Northeast 215 247 25,000  Climbing Washington Center
03:17AM 37.5069 -79.0947 48° Northeast 215 247 24,900 -60 Descending Washington Center
03:18AM 37.5503 -79.0339 48° Northeast 215 247 24,900  Level Washington Center
03:19AM 37.5872 -78.9831 47° Northeast 215 247 24,900  Level Washington Center
03:20AM 37.6306 -78.9247 47° Northeast 215 247 24,900  Level Washington Center
03:21AM 37.6739 -78.8636 48° Northeast 215 247 24,900  Level Washington Center
03:22AM 37.7172 -78.8053 47° Northeast 215 247 24,900 -180 Level Washington Center
03:23AM 37.7672 -78.7364 47° Northeast 221 254 24,600 -540 Descending Washington Center
03:24AM 37.8128 -78.6672 50° Northeast 238 274 23,900 -660 Descending Washington Center
03:25AM 37.8625 -78.5983 48° Northeast 253 291 23,300 -480 Descending Washington Center
03:26AM 37.9058 -78.5317 51° Northeast 265 305 23,000 -180 Descending Washington Center
03:27AM 37.9553 -78.4650 47° Northeast 259 298 23,000  Level Washington Center
03:28AM 38.0006 -78.4008 48° Northeast 247 284 23,000  Level Washington Center
03:29AM 38.0417 -78.3364 51° Northeast 241 277 23,000  Level Washington Center
03:30AM 38.0828 -78.2747 50° Northeast 236 272 23,000  Level Washington Center
03:31AM 38.1258 -78.2128 49° Northeast 230 265 23,000  Level Washington Center
03:32AM 38.1689 -78.1483 50° Northeast 230 265 23,000  Level Washington Center
03:33AM 38.2097 -78.0889 49° Northeast 230 265 23,000  Level Washington Center
03:34AM 38.2447 -78.0186 58° Northeast 230 265 23,000  Level Washington Center
03:35AM 38.2672 -77.9375 71° East 230 265 23,000  Level Washington Center
03:36AM 38.2956 -77.8642 64° Northeast 230 265 23,000  Level Washington Center
03:37AM 38.3242 -77.7911 63° Northeast 230 265 23,000  Level Washington Center
03:38AM 38.3525 -77.7178 64° Northeast 230 265 23,000  Level Washington Center
03:39AM 38.3808 -77.6444 64° Northeast 230 265 23,000  Level Washington Center
03:40AM 38.4114 -77.5711 62° Northeast 230 265 23,000 -420 Level Washington Center
03:41AM 38.4375 -77.4922 67° East 235 270 22,200 -1,080 Descending Washington Center
03:42AM 38.4683 -77.4003 67° East 252 290 20,900 -1,320 Descending Washington Center
03:44AM 38.5500 -77.2000 62° Northeast 292 336 18,300 -1,200 Descending Potomac TRACON
03:45AM 38.5833 -77.1000 67° East 290 334 17,300 -1,200 Descending Potomac TRACON
03:46AM 38.6167 -77.0000 67° East 288 331 16,000 -1,260 Descending Potomac TRACON
03:47AM 38.6500 -76.9167 63° Northeast 285 328 14,800 -1,200 Descending Potomac TRACON
03:48AM 38.6667 -76.8167 78° East 280 322 13,600 -1,500 Descending Potomac TRACON
03:49AM 38.7000 -76.7333 63° Northeast 269 310 11,800 -1,740 Descending Potomac TRACON
03:50AM 38.7667 -76.7000 21° North 249 287 10,200 -1,800 Descending Potomac TRACON
03:51AM 38.8333 -76.6833 11° North 244 281 8,300 -1,800 Descending Potomac TRACON
03:52AM 38.9000 -76.6667 11° North 235 270 6,600 -1,800 Descending Potomac TRACON
03:53AM 38.9667 -76.6500 11° North 233 268 4,800 -1,800 Descending Potomac TRACON
03:54AM 39.0333 -76.6333 11° North 227 261 3,100 -1,560 Descending Potomac TRACON
03:55AM 39.0833 -76.6333 360° North 216 249 1,700 -960 Descending Potomac TRACON
03:56AM 39.1333 -76.6167 14° North 172 198 1,200 -660 Descending Potomac TRACON
03:57AM 39.1667 -76.6500 322° Northwest 121 139 400 -840 Descending Potomac TRACON
03:59AM 39.1667 -76.6667 11° North  Level FlightAware Approximate
04:06AM 39.1754 -76.6683 11° North  Level Estimated
04:07AM 39.1754 -76.6683 11° North  Level Estimated
04:08AM 39.1754 -76.6683 11° North  Level Estimated